sensor_id;sensor_type;location;lat;lon;timestamp;P1;durP1;ratioP1;P2;durP2;ratioP2
58152;SDS011;43967;51.634;5.566;2022-07-24T00:02:54;10.73;;;3.23;;
58152;SDS011;43967;51.634;5.566;2022-07-24T00:07:55;7.70;;;3.20;;
58152;SDS011;43967;51.634;5.566;2022-07-24T00:13:00;8.27;;;3.08;;
58152;SDS011;43967;51.634;5.566;2022-07-24T00:18:01;7.47;;;2.85;;
58152;SDS011;43967;51.634;5.566;2022-07-24T00:23:02;6.30;;;2.90;;
58152;SDS011;43967;51.634;5.566;2022-07-24T00:28:03;6.82;;;2.90;;
58152;SDS011;43967;51.634;5.566;2022-07-24T00:33:04;8.95;;;3.10;;
58152;SDS011;43967;51.634;5.566;2022-07-24T00:38:06;6.20;;;2.60;;
58152;SDS011;43967;51.634;5.566;2022-07-24T00:43:07;6.47;;;2.70;;
58152;SDS011;43967;51.634;5.566;2022-07-24T00:48:08;8.82;;;2.92;;
58152;SDS011;43967;51.634;5.566;2022-07-24T00:53:10;6.00;;;2.50;;
58152;SDS011;43967;51.634;5.566;2022-07-24T01:04:35;6.82;;;2.90;;
58152;SDS011;43967;51.634;5.566;2022-07-24T01:09:36;6.72;;;3.03;;
58152;SDS011;43967;51.634;5.566;2022-07-24T01:14:39;7.13;;;3.40;;
58152;SDS011;43967;51.634;5.566;2022-07-24T01:19:40;6.70;;;3.20;;
58152;SDS011;43967;51.634;5.566;2022-07-24T01:24:41;7.07;;;3.15;;
58152;SDS011;43967;51.634;5.566;2022-07-24T01:29:42;7.13;;;3.10;;
58152;SDS011;43967;51.634;5.566;2022-07-24T01:34:44;6.53;;;2.70;;
58152;SDS011;43967;51.634;5.566;2022-07-24T01:39:45;7.97;;;3.40;;
58152;SDS011;43967;51.634;5.566;2022-07-24T01:44:46;6.63;;;3.20;;
58152;SDS011;43967;51.634;5.566;2022-07-24T01:49:48;7.03;;;3.17;;
58152;SDS011;43967;51.634;5.566;2022-07-24T01:54:49;7.53;;;3.30;;
58152;SDS011;43967;51.634;5.566;2022-07-24T01:59:52;6.68;;;2.95;;
58152;SDS011;43967;51.634;5.566;2022-07-24T02:04:53;7.57;;;3.23;;
58152;SDS011;43967;51.634;5.566;2022-07-24T02:09:54;6.85;;;2.95;;
58152;SDS011;43967;51.634;5.566;2022-07-24T02:14:58;6.88;;;3.08;;
58152;SDS011;43967;51.634;5.566;2022-07-24T02:19:59;7.07;;;3.43;;
58152;SDS011;43967;51.634;5.566;2022-07-24T02:25:00;6.55;;;2.90;;
58152;SDS011;43967;51.634;5.566;2022-07-24T02:30:03;6.65;;;3.30;;
58152;SDS011;43967;51.634;5.566;2022-07-24T02:35:05;6.73;;;3.03;;
58152;SDS011;43967;51.634;5.566;2022-07-24T02:40:07;6.90;;;2.83;;
58152;SDS011;43967;51.634;5.566;2022-07-24T02:45:10;6.75;;;3.25;;
58152;SDS011;43967;51.634;5.566;2022-07-24T02:50:11;6.85;;;3.00;;
58152;SDS011;43967;51.634;5.566;2022-07-24T02:55:15;7.10;;;3.47;;
58152;SDS011;43967;51.634;5.566;2022-07-24T03:00:17;6.15;;;2.45;;
58152;SDS011;43967;51.634;5.566;2022-07-24T03:05:19;7.57;;;3.13;;
58152;SDS011;43967;51.634;5.566;2022-07-24T03:10:20;7.17;;;3.57;;
58152;SDS011;43967;51.634;5.566;2022-07-24T03:15:21;6.82;;;3.10;;
58152;SDS011;43967;51.634;5.566;2022-07-24T03:20:23;7.25;;;3.58;;
58152;SDS011;43967;51.634;5.566;2022-07-24T03:25:26;6.77;;;3.30;;
58152;SDS011;43967;51.634;5.566;2022-07-24T03:30:27;6.30;;;2.87;;
58152;SDS011;43967;51.634;5.566;2022-07-24T03:35:28;7.68;;;3.33;;
58152;SDS011;43967;51.634;5.566;2022-07-24T03:40:29;7.20;;;3.22;;
58152;SDS011;43967;51.634;5.566;2022-07-24T03:45:30;7.40;;;3.30;;
58152;SDS011;43967;51.634;5.566;2022-07-24T03:50:31;6.78;;;3.10;;
58152;SDS011;43967;51.634;5.566;2022-07-24T03:55:33;7.38;;;3.30;;
58152;SDS011;43967;51.634;5.566;2022-07-24T04:00:34;7.77;;;3.73;;
58152;SDS011;43967;51.634;5.566;2022-07-24T04:05:35;7.65;;;3.50;;
58152;SDS011;43967;51.634;5.566;2022-07-24T04:10:36;7.38;;;3.10;;
58152;SDS011;43967;51.634;5.566;2022-07-24T04:15:37;8.27;;;3.50;;
58152;SDS011;43967;51.634;5.566;2022-07-24T04:20:38;6.80;;;3.20;;
58152;SDS011;43967;51.634;5.566;2022-07-24T04:25:39;7.15;;;3.25;;
58152;SDS011;43967;51.634;5.566;2022-07-24T04:30:43;6.57;;;3.33;;
58152;SDS011;43967;51.634;5.566;2022-07-24T04:35:45;7.40;;;3.30;;
58152;SDS011;43967;51.634;5.566;2022-07-24T04:40:46;8.30;;;3.47;;
58152;SDS011;43967;51.634;5.566;2022-07-24T04:45:47;7.22;;;3.33;;
58152;SDS011;43967;51.634;5.566;2022-07-24T04:50:48;7.07;;;3.13;;
58152;SDS011;43967;51.634;5.566;2022-07-24T04:55:49;6.97;;;3.03;;
58152;SDS011;43967;51.634;5.566;2022-07-24T05:00:50;6.70;;;3.20;;
58152;SDS011;43967;51.634;5.566;2022-07-24T05:05:51;7.17;;;3.30;;
58152;SDS011;43967;51.634;5.566;2022-07-24T05:10:53;8.63;;;3.10;;
58152;SDS011;43967;51.634;5.566;2022-07-24T05:15:54;7.40;;;3.67;;
58152;SDS011;43967;51.634;5.566;2022-07-24T05:20:55;7.63;;;3.28;;
58152;SDS011;43967;51.634;5.566;2022-07-24T05:25:56;7.77;;;3.20;;
58152;SDS011;43967;51.634;5.566;2022-07-24T05:30:57;6.65;;;3.10;;
58152;SDS011;43967;51.634;5.566;2022-07-24T05:35:58;6.90;;;3.10;;
58152;SDS011;43967;51.634;5.566;2022-07-24T05:41:00;6.70;;;3.00;;
58152;SDS011;43967;51.634;5.566;2022-07-24T05:46:01;6.72;;;2.90;;
58152;SDS011;43967;51.634;5.566;2022-07-24T05:51:02;6.70;;;3.33;;
58152;SDS011;43967;51.634;5.566;2022-07-24T05:56:03;7.63;;;3.27;;
58152;SDS011;43967;51.634;5.566;2022-07-24T06:01:05;7.77;;;3.20;;
58152;SDS011;43967;51.634;5.566;2022-07-24T06:06:06;7.13;;;3.35;;
58152;SDS011;43967;51.634;5.566;2022-07-24T06:11:07;7.53;;;3.40;;
58152;SDS011;43967;51.634;5.566;2022-07-24T06:16:08;7.40;;;3.50;;
58152;SDS011;43967;51.634;5.566;2022-07-24T06:21:10;6.72;;;3.30;;
58152;SDS011;43967;51.634;5.566;2022-07-24T06:26:14;6.93;;;2.97;;
58152;SDS011;43967;51.634;5.566;2022-07-24T06:31:15;7.37;;;3.17;;
58152;SDS011;43967;51.634;5.566;2022-07-24T06:36:18;8.63;;;3.20;;
58152;SDS011;43967;51.634;5.566;2022-07-24T06:41:21;18.88;;;12.02;;
58152;SDS011;43967;51.634;5.566;2022-07-24T06:46:22;18.63;;;11.87;;
58152;SDS011;43967;51.634;5.566;2022-07-24T06:51:23;19.30;;;11.60;;
58152;SDS011;43967;51.634;5.566;2022-07-24T06:56:24;19.73;;;10.55;;
58152;SDS011;43967;51.634;5.566;2022-07-24T07:01:26;17.70;;;10.13;;
58152;SDS011;43967;51.634;5.566;2022-07-24T07:06:27;14.27;;;8.03;;
58152;SDS011;43967;51.634;5.566;2022-07-24T07:11:28;18.23;;;8.57;;
58152;SDS011;43967;51.634;5.566;2022-07-24T07:16:29;16.77;;;6.68;;
58152;SDS011;43967;51.634;5.566;2022-07-24T07:21:30;11.67;;;6.43;;
58152;SDS011;43967;51.634;5.566;2022-07-24T07:26:33;10.80;;;5.55;;
58152;SDS011;43967;51.634;5.566;2022-07-24T07:31:34;9.80;;;5.22;;
58152;SDS011;43967;51.634;5.566;2022-07-24T07:36:35;9.97;;;5.27;;
58152;SDS011;43967;51.634;5.566;2022-07-24T07:41:36;10.80;;;5.83;;
58152;SDS011;43967;51.634;5.566;2022-07-24T07:46:37;11.55;;;5.28;;
58152;SDS011;43967;51.634;5.566;2022-07-24T07:51:38;9.05;;;4.38;;
58152;SDS011;43967;51.634;5.566;2022-07-24T07:56:40;9.03;;;4.40;;
58152;SDS011;43967;51.634;5.566;2022-07-24T08:01:41;10.00;;;4.20;;
58152;SDS011;43967;51.634;5.566;2022-07-24T08:06:42;10.65;;;4.28;;
58152;SDS011;43967;51.634;5.566;2022-07-24T08:11:43;7.40;;;3.57;;
58152;SDS011;43967;51.634;5.566;2022-07-24T08:16:44;8.00;;;3.60;;
58152;SDS011;43967;51.634;5.566;2022-07-24T08:21:45;7.60;;;3.30;;
58152;SDS011;43967;51.634;5.566;2022-07-24T08:26:47;7.47;;;3.20;;
58152;SDS011;43967;51.634;5.566;2022-07-24T08:31:48;8.70;;;3.73;;
58152;SDS011;43967;51.634;5.566;2022-07-24T08:36:50;6.68;;;3.10;;
58152;SDS011;43967;51.634;5.566;2022-07-24T08:41:51;7.10;;;3.15;;
58152;SDS011;43967;51.634;5.566;2022-07-24T08:46:53;6.40;;;2.90;;
58152;SDS011;43967;51.634;5.566;2022-07-24T08:51:54;8.45;;;2.97;;
58152;SDS011;43967;51.634;5.566;2022-07-24T08:56:58;7.53;;;2.80;;
58152;SDS011;43967;51.634;5.566;2022-07-24T09:02:00;7.17;;;2.60;;
58152;SDS011;43967;51.634;5.566;2022-07-24T09:07:03;6.70;;;2.80;;
58152;SDS011;43967;51.634;5.566;2022-07-24T09:12:16;6.22;;;2.40;;
58152;SDS011;43967;51.634;5.566;2022-07-24T09:17:21;7.10;;;3.10;;
58152;SDS011;43967;51.634;5.566;2022-07-24T09:32:56;8.93;;;2.90;;
58152;SDS011;43967;51.634;5.566;2022-07-24T09:38:09;8.53;;;2.70;;
58152;SDS011;43967;51.634;5.566;2022-07-24T09:43:18;10.75;;;2.92;;
58152;SDS011;43967;51.634;5.566;2022-07-24T09:48:22;8.52;;;2.90;;
58152;SDS011;43967;51.634;5.566;2022-07-24T09:53:34;7.90;;;2.97;;
58152;SDS011;43967;51.634;5.566;2022-07-24T09:58:37;7.25;;;2.80;;
58152;SDS011;43967;51.634;5.566;2022-07-24T10:03:40;10.38;;;3.22;;
58152;SDS011;43967;51.634;5.566;2022-07-24T10:08:43;8.43;;;3.30;;
58152;SDS011;43967;51.634;5.566;2022-07-24T10:13:45;7.73;;;2.97;;
58152;SDS011;43967;51.634;5.566;2022-07-24T10:18:48;7.00;;;3.40;;
58152;SDS011;43967;51.634;5.566;2022-07-24T10:34:13;7.43;;;2.95;;
58152;SDS011;43967;51.634;5.566;2022-07-24T10:39:47;6.70;;;3.10;;
58152;SDS011;43967;51.634;5.566;2022-07-24T10:50:18;8.63;;;2.88;;
58152;SDS011;43967;51.634;5.566;2022-07-24T11:00:30;7.20;;;3.03;;
58152;SDS011;43967;51.634;5.566;2022-07-24T11:05:37;7.33;;;3.10;;
58152;SDS011;43967;51.634;5.566;2022-07-24T11:10:45;7.05;;;2.83;;
58152;SDS011;43967;51.634;5.566;2022-07-24T11:21:11;18.27;;;2.93;;
58152;SDS011;43967;51.634;5.566;2022-07-24T11:31:34;8.13;;;2.92;;
58152;SDS011;43967;51.634;5.566;2022-07-24T11:36:42;7.73;;;3.00;;
58152;SDS011;43967;51.634;5.566;2022-07-24T11:41:49;8.18;;;2.90;;
58152;SDS011;43967;51.634;5.566;2022-07-24T11:46:52;8.95;;;3.08;;
58152;SDS011;43967;51.634;5.566;2022-07-24T11:51:57;8.37;;;3.13;;
58152;SDS011;43967;51.634;5.566;2022-07-24T11:57:01;10.10;;;3.20;;
58152;SDS011;43967;51.634;5.566;2022-07-24T12:02:06;8.63;;;3.35;;
58152;SDS011;43967;51.634;5.566;2022-07-24T12:07:13;9.27;;;3.10;;
58152;SDS011;43967;51.634;5.566;2022-07-24T12:12:27;9.40;;;2.90;;
58152;SDS011;43967;51.634;5.566;2022-07-24T12:17:52;10.07;;;3.10;;
58152;SDS011;43967;51.634;5.566;2022-07-24T12:23:01;8.70;;;2.90;;
58152;SDS011;43967;51.634;5.566;2022-07-24T12:28:08;8.20;;;3.40;;
58152;SDS011;43967;51.634;5.566;2022-07-24T12:38:15;7.07;;;3.05;;
58152;SDS011;43967;51.634;5.566;2022-07-24T12:43:26;6.97;;;3.17;;
58152;SDS011;43967;51.634;5.566;2022-07-24T12:48:27;8.13;;;3.20;;
58152;SDS011;43967;51.634;5.566;2022-07-24T12:53:29;8.00;;;2.83;;
58152;SDS011;43967;51.634;5.566;2022-07-24T13:04:08;8.50;;;3.40;;
58152;SDS011;43967;51.634;5.566;2022-07-24T13:09:11;15.20;;;3.00;;
58152;SDS011;43967;51.634;5.566;2022-07-24T13:14:13;13.27;;;3.40;;
58152;SDS011;43967;51.634;5.566;2022-07-24T13:29:59;7.23;;;2.93;;
58152;SDS011;43967;51.634;5.566;2022-07-24T13:35:01;8.38;;;2.97;;
58152;SDS011;43967;51.634;5.566;2022-07-24T13:40:02;7.40;;;2.70;;
58152;SDS011;43967;51.634;5.566;2022-07-24T13:45:04;7.57;;;2.63;;
58152;SDS011;43967;51.634;5.566;2022-07-24T13:50:06;6.60;;;2.80;;
58152;SDS011;43967;51.634;5.566;2022-07-24T14:05:46;7.45;;;2.72;;
58152;SDS011;43967;51.634;5.566;2022-07-24T14:10:47;8.20;;;2.80;;
58152;SDS011;43967;51.634;5.566;2022-07-24T14:15:48;10.60;;;3.00;;
58152;SDS011;43967;51.634;5.566;2022-07-24T14:20:49;13.27;;;3.25;;
58152;SDS011;43967;51.634;5.566;2022-07-24T14:46:59;7.77;;;3.00;;
58152;SDS011;43967;51.634;5.566;2022-07-24T14:52:00;8.10;;;3.20;;
58152;SDS011;43967;51.634;5.566;2022-07-24T14:57:01;8.20;;;3.20;;
58152;SDS011;43967;51.634;5.566;2022-07-24T15:02:02;6.93;;;2.72;;
58152;SDS011;43967;51.634;5.566;2022-07-24T15:07:07;7.10;;;2.47;;
58152;SDS011;43967;51.634;5.566;2022-07-24T15:12:08;7.30;;;2.90;;
58152;SDS011;43967;51.634;5.566;2022-07-24T15:17:10;7.40;;;3.03;;
58152;SDS011;43967;51.634;5.566;2022-07-24T15:22:11;7.83;;;2.87;;
58152;SDS011;43967;51.634;5.566;2022-07-24T15:27:12;7.85;;;2.45;;
58152;SDS011;43967;51.634;5.566;2022-07-24T15:32:13;8.48;;;3.10;;
58152;SDS011;43967;51.634;5.566;2022-07-24T15:37:14;8.00;;;2.93;;
58152;SDS011;43967;51.634;5.566;2022-07-24T15:42:16;7.53;;;3.07;;
58152;SDS011;43967;51.634;5.566;2022-07-24T15:47:17;7.30;;;2.95;;
58152;SDS011;43967;51.634;5.566;2022-07-24T15:52:18;7.68;;;2.75;;
58152;SDS011;43967;51.634;5.566;2022-07-24T15:57:19;7.83;;;2.90;;
58152;SDS011;43967;51.634;5.566;2022-07-24T16:02:20;7.63;;;2.88;;
58152;SDS011;43967;51.634;5.566;2022-07-24T16:07:21;7.05;;;2.63;;
58152;SDS011;43967;51.634;5.566;2022-07-24T16:12:23;9.50;;;3.10;;
58152;SDS011;43967;51.634;5.566;2022-07-24T16:17:24;7.18;;;3.05;;
58152;SDS011;43967;51.634;5.566;2022-07-24T16:22:26;8.48;;;3.08;;
58152;SDS011;43967;51.634;5.566;2022-07-24T16:27:27;27.97;;;3.20;;
58152;SDS011;43967;51.634;5.566;2022-07-24T16:32:29;10.17;;;3.40;;
58152;SDS011;43967;51.634;5.566;2022-07-24T16:37:30;8.90;;;3.10;;
58152;SDS011;43967;51.634;5.566;2022-07-24T16:42:31;7.63;;;2.92;;
58152;SDS011;43967;51.634;5.566;2022-07-24T16:47:32;7.57;;;2.83;;
58152;SDS011;43967;51.634;5.566;2022-07-24T16:52:33;9.13;;;2.53;;
58152;SDS011;43967;51.634;5.566;2022-07-24T16:57:35;7.68;;;2.90;;
58152;SDS011;43967;51.634;5.566;2022-07-24T17:02:36;7.03;;;2.90;;
58152;SDS011;43967;51.634;5.566;2022-07-24T17:07:37;6.63;;;2.72;;
58152;SDS011;43967;51.634;5.566;2022-07-24T17:12:38;7.78;;;3.00;;
58152;SDS011;43967;51.634;5.566;2022-07-24T17:17:39;6.70;;;3.13;;
58152;SDS011;43967;51.634;5.566;2022-07-24T17:22:41;7.33;;;2.57;;
58152;SDS011;43967;51.634;5.566;2022-07-24T17:27:42;8.82;;;2.70;;
58152;SDS011;43967;51.634;5.566;2022-07-24T17:32:43;9.00;;;2.58;;
58152;SDS011;43967;51.634;5.566;2022-07-24T17:37:44;10.00;;;2.83;;
58152;SDS011;43967;51.634;5.566;2022-07-24T17:42:49;8.57;;;3.03;;
58152;SDS011;43967;51.634;5.566;2022-07-24T17:47:51;10.55;;;3.08;;
58152;SDS011;43967;51.634;5.566;2022-07-24T17:52:52;8.93;;;2.87;;
58152;SDS011;43967;51.634;5.566;2022-07-24T17:57:53;8.13;;;2.72;;
58152;SDS011;43967;51.634;5.566;2022-07-24T18:02:54;9.77;;;2.50;;
58152;SDS011;43967;51.634;5.566;2022-07-24T18:07:55;8.07;;;2.73;;
58152;SDS011;43967;51.634;5.566;2022-07-24T18:12:56;12.10;;;3.00;;
58152;SDS011;43967;51.634;5.566;2022-07-24T18:17:58;7.55;;;2.65;;
58152;SDS011;43967;51.634;5.566;2022-07-24T18:22:59;7.68;;;2.70;;
58152;SDS011;43967;51.634;5.566;2022-07-24T18:28:00;7.77;;;2.53;;
58152;SDS011;43967;51.634;5.566;2022-07-24T18:33:01;7.53;;;2.67;;
58152;SDS011;43967;51.634;5.566;2022-07-24T18:38:02;6.88;;;2.70;;
58152;SDS011;43967;51.634;5.566;2022-07-24T18:43:03;8.70;;;3.37;;
58152;SDS011;43967;51.634;5.566;2022-07-24T18:48:04;9.68;;;2.60;;
58152;SDS011;43967;51.634;5.566;2022-07-24T18:53:05;7.88;;;2.75;;
58152;SDS011;43967;51.634;5.566;2022-07-24T18:58:06;6.80;;;2.50;;
58152;SDS011;43967;51.634;5.566;2022-07-24T19:03:09;8.27;;;2.63;;
58152;SDS011;43967;51.634;5.566;2022-07-24T19:08:11;8.07;;;2.50;;
58152;SDS011;43967;51.634;5.566;2022-07-24T19:13:12;9.20;;;3.05;;
58152;SDS011;43967;51.634;5.566;2022-07-24T19:18:13;10.07;;;2.77;;
58152;SDS011;43967;51.634;5.566;2022-07-24T19:23:14;10.27;;;2.70;;
58152;SDS011;43967;51.634;5.566;2022-07-24T19:28:16;10.55;;;2.88;;
58152;SDS011;43967;51.634;5.566;2022-07-24T19:33:17;7.97;;;3.07;;
58152;SDS011;43967;51.634;5.566;2022-07-24T19:38:18;6.85;;;2.65;;
58152;SDS011;43967;51.634;5.566;2022-07-24T19:43:19;9.38;;;3.45;;
58152;SDS011;43967;51.634;5.566;2022-07-24T19:48:21;9.40;;;3.40;;
58152;SDS011;43967;51.634;5.566;2022-07-24T19:53:23;9.47;;;3.03;;
58152;SDS011;43967;51.634;5.566;2022-07-24T19:58:24;8.20;;;3.78;;
58152;SDS011;43967;51.634;5.566;2022-07-24T20:03:25;8.13;;;3.60;;
58152;SDS011;43967;51.634;5.566;2022-07-24T20:08:26;10.37;;;3.27;;
58152;SDS011;43967;51.634;5.566;2022-07-24T20:13:27;13.25;;;3.70;;
58152;SDS011;43967;51.634;5.566;2022-07-24T20:18:28;21.40;;;4.78;;
58152;SDS011;43967;51.634;5.566;2022-07-24T20:23:29;23.60;;;5.73;;
58152;SDS011;43967;51.634;5.566;2022-07-24T20:28:30;24.42;;;5.30;;
58152;SDS011;43967;51.634;5.566;2022-07-24T20:33:31;22.27;;;5.82;;
58152;SDS011;43967;51.634;5.566;2022-07-24T20:38:33;20.40;;;5.90;;
58152;SDS011;43967;51.634;5.566;2022-07-24T20:43:34;30.03;;;7.07;;
58152;SDS011;43967;51.634;5.566;2022-07-24T20:48:35;9.25;;;4.15;;
58152;SDS011;43967;51.634;5.566;2022-07-24T20:53:36;9.45;;;4.03;;
58152;SDS011;43967;51.634;5.566;2022-07-24T20:58:37;8.70;;;4.10;;
58152;SDS011;43967;51.634;5.566;2022-07-24T21:03:38;9.00;;;3.72;;
58152;SDS011;43967;51.634;5.566;2022-07-24T21:08:39;9.63;;;4.13;;
58152;SDS011;43967;51.634;5.566;2022-07-24T21:13:40;8.77;;;4.10;;
58152;SDS011;43967;51.634;5.566;2022-07-24T21:18:41;9.23;;;4.45;;
58152;SDS011;43967;51.634;5.566;2022-07-24T21:23:42;9.35;;;4.50;;
58152;SDS011;43967;51.634;5.566;2022-07-24T21:28:43;9.37;;;4.00;;
58152;SDS011;43967;51.634;5.566;2022-07-24T21:33:45;7.80;;;3.93;;
58152;SDS011;43967;51.634;5.566;2022-07-24T21:38:46;8.23;;;4.10;;
58152;SDS011;43967;51.634;5.566;2022-07-24T21:43:47;10.30;;;4.63;;
58152;SDS011;43967;51.634;5.566;2022-07-24T21:48:48;13.27;;;4.20;;
58152;SDS011;43967;51.634;5.566;2022-07-24T21:53:49;11.50;;;3.80;;
58152;SDS011;43967;51.634;5.566;2022-07-24T21:58:50;15.02;;;4.30;;
58152;SDS011;43967;51.634;5.566;2022-07-24T22:03:51;8.33;;;3.60;;
58152;SDS011;43967;51.634;5.566;2022-07-24T22:08:52;9.18;;;4.10;;
58152;SDS011;43967;51.634;5.566;2022-07-24T22:13:53;9.13;;;3.88;;
58152;SDS011;43967;51.634;5.566;2022-07-24T22:18:55;8.67;;;3.60;;
58152;SDS011;43967;51.634;5.566;2022-07-24T22:23:56;9.27;;;3.80;;
58152;SDS011;43967;51.634;5.566;2022-07-24T22:28:57;8.57;;;4.07;;
58152;SDS011;43967;51.634;5.566;2022-07-24T22:33:58;9.38;;;3.88;;
58152;SDS011;43967;51.634;5.566;2022-07-24T22:39:00;8.30;;;3.87;;
58152;SDS011;43967;51.634;5.566;2022-07-24T22:44:02;7.82;;;3.40;;
58152;SDS011;43967;51.634;5.566;2022-07-24T22:49:03;9.10;;;3.70;;
58152;SDS011;43967;51.634;5.566;2022-07-24T22:54:04;7.17;;;3.40;;
58152;SDS011;43967;51.634;5.566;2022-07-24T22:59:05;7.55;;;3.33;;
58152;SDS011;43967;51.634;5.566;2022-07-24T23:04:07;7.38;;;3.65;;
58152;SDS011;43967;51.634;5.566;2022-07-24T23:09:08;8.07;;;3.60;;
58152;SDS011;43967;51.634;5.566;2022-07-24T23:14:09;7.70;;;3.80;;
58152;SDS011;43967;51.634;5.566;2022-07-24T23:19:10;8.32;;;3.85;;
58152;SDS011;43967;51.634;5.566;2022-07-24T23:24:11;8.60;;;3.50;;
58152;SDS011;43967;51.634;5.566;2022-07-24T23:29:12;9.07;;;3.63;;
58152;SDS011;43967;51.634;5.566;2022-07-24T23:34:14;7.53;;;3.40;;
58152;SDS011;43967;51.634;5.566;2022-07-24T23:39:15;8.40;;;3.72;;
58152;SDS011;43967;51.634;5.566;2022-07-24T23:44:16;7.53;;;3.80;;
58152;SDS011;43967;51.634;5.566;2022-07-24T23:49:17;8.82;;;3.50;;
58152;SDS011;43967;51.634;5.566;2022-07-24T23:54:18;8.48;;;3.80;;
58152;SDS011;43967;51.634;5.566;2022-07-24T23:59:19;7.83;;;3.77;;
